BENVENUTI AL 154° GRUPPO VIRTUALE
  • Home
  • Missioni Operative
  • Folder Facile

METAR & TAF

[Source: ADDS]
METAR
LIPL 301255Z 26004KT 7000 NSC 28/20 Q1011 RMK BKN SCT100 SCT140 VIS MIN 7000 WIND THR31 26004KT WIND THR13 24004KT WHT =
LIPL 301100Z 3012/3021 32005KT 9999 SCT080 TEMPO 3015/3018 5000 SHRA FEW020CB SCT030
TAF
LIPL 301100Z 3012/3021 32005KT 9999 SCT080 TEMPO 3015/3018 5000 SHRA FEW020CB SCT030 =

Notice: Undefined index: sun in /web/htdocs/www.154gruppovirtuale.it/home/modules/mod_wx/tmpl/default.php on line 13

Official Tools

CombatFlite Logo  
 
   

Network

Simulation Platform